sensor_id;sensor_type;location;lat;lon;timestamp;temperature;humidity
50738;DHT22;36703;48.154;17.126;2023-07-29T00:01:44;27.60;72.20
50738;DHT22;36703;48.154;17.126;2023-07-29T00:05:47;27.60;72.00
50738;DHT22;36703;48.154;17.126;2023-07-29T00:09:49;27.60;72.00
50738;DHT22;36703;48.154;17.126;2023-07-29T00:13:50;27.50;71.20
50738;DHT22;36703;48.154;17.126;2023-07-29T00:17:52;27.60;72.20
50738;DHT22;36703;48.154;17.126;2023-07-29T00:21:53;27.60;72.20
50738;DHT22;36703;48.154;17.126;2023-07-29T00:25:55;27.60;72.20
50738;DHT22;36703;48.154;17.126;2023-07-29T00:29:56;27.60;72.20
50738;DHT22;36703;48.154;17.126;2023-07-29T00:33:59;27.60;72.20
50738;DHT22;36703;48.154;17.126;2023-07-29T00:38:01;27.50;72.50
50738;DHT22;36703;48.154;17.126;2023-07-29T00:42:03;27.50;72.40
50738;DHT22;36703;48.154;17.126;2023-07-29T00:46:05;27.50;72.30
50738;DHT22;36703;48.154;17.126;2023-07-29T00:50:09;27.50;72.40
50738;DHT22;36703;48.154;17.126;2023-07-29T00:54:13;27.50;72.40
50738;DHT22;36703;48.154;17.126;2023-07-29T00:58:15;27.50;72.50
50738;DHT22;36703;48.154;17.126;2023-07-29T01:02:17;27.50;72.70
50738;DHT22;36703;48.154;17.126;2023-07-29T01:10:46;27.40;72.60
50738;DHT22;36703;48.154;17.126;2023-07-29T01:15:28;27.40;72.70
50738;DHT22;36703;48.154;17.126;2023-07-29T01:24:02;27.40;72.70
50738;DHT22;36703;48.154;17.126;2023-07-29T01:28:04;27.40;72.90
50738;DHT22;36703;48.154;17.126;2023-07-29T01:32:22;27.40;73.10
50738;DHT22;36703;48.154;17.126;2023-07-29T01:36:46;27.40;73.00
50738;DHT22;36703;48.154;17.126;2023-07-29T01:40:48;27.40;73.10
50738;DHT22;36703;48.154;17.126;2023-07-29T01:44:52;27.40;73.20
50738;DHT22;36703;48.154;17.126;2023-07-29T01:48:54;27.40;73.30
50738;DHT22;36703;48.154;17.126;2023-07-29T01:52:55;27.30;72.70
50738;DHT22;36703;48.154;17.126;2023-07-29T01:56:58;27.30;73.80
50738;DHT22;36703;48.154;17.126;2023-07-29T02:00:59;27.20;73.80
50738;DHT22;36703;48.154;17.126;2023-07-29T02:05:01;27.10;73.80
50738;DHT22;36703;48.154;17.126;2023-07-29T02:09:02;27.00;74.10
50738;DHT22;36703;48.154;17.126;2023-07-29T02:13:05;27.00;74.30
50738;DHT22;36703;48.154;17.126;2023-07-29T02:17:07;26.80;74.40
50738;DHT22;36703;48.154;17.126;2023-07-29T02:21:09;26.70;74.40
50738;DHT22;36703;48.154;17.126;2023-07-29T02:25:11;26.70;74.70
50738;DHT22;36703;48.154;17.126;2023-07-29T02:29:13;26.70;74.80
50738;DHT22;36703;48.154;17.126;2023-07-29T02:33:14;26.80;75.00
50738;DHT22;36703;48.154;17.126;2023-07-29T02:37:16;26.90;75.00
50738;DHT22;36703;48.154;17.126;2023-07-29T02:41:18;26.90;74.80
50738;DHT22;36703;48.154;17.126;2023-07-29T02:45:20;26.90;75.10
50738;DHT22;36703;48.154;17.126;2023-07-29T02:49:22;26.90;74.80
50738;DHT22;36703;48.154;17.126;2023-07-29T02:53:25;27.00;74.80
50738;DHT22;36703;48.154;17.126;2023-07-29T02:57:26;27.00;74.80
50738;DHT22;36703;48.154;17.126;2023-07-29T03:01:28;27.00;74.80
50738;DHT22;36703;48.154;17.126;2023-07-29T03:05:29;27.00;74.90
50738;DHT22;36703;48.154;17.126;2023-07-29T03:09:31;26.80;75.10
50738;DHT22;36703;48.154;17.126;2023-07-29T03:13:34;26.70;75.20
50738;DHT22;36703;48.154;17.126;2023-07-29T03:17:35;26.60;75.60
50738;DHT22;36703;48.154;17.126;2023-07-29T03:21:37;26.50;75.70
50738;DHT22;36703;48.154;17.126;2023-07-29T03:25:39;26.40;75.80
50738;DHT22;36703;48.154;17.126;2023-07-29T03:29:40;26.30;76.00
50738;DHT22;36703;48.154;17.126;2023-07-29T03:33:42;26.30;76.30
50738;DHT22;36703;48.154;17.126;2023-07-29T03:37:43;26.30;76.50
50738;DHT22;36703;48.154;17.126;2023-07-29T03:41:45;26.30;76.60
50738;DHT22;36703;48.154;17.126;2023-07-29T03:45:47;26.30;77.30
50738;DHT22;36703;48.154;17.126;2023-07-29T03:49:48;26.30;76.60
50738;DHT22;36703;48.154;17.126;2023-07-29T03:53:52;26.30;76.90
50738;DHT22;36703;48.154;17.126;2023-07-29T03:57:54;26.30;76.80
50738;DHT22;36703;48.154;17.126;2023-07-29T04:01:55;26.40;76.80
50738;DHT22;36703;48.154;17.126;2023-07-29T04:05:57;26.50;76.70
50738;DHT22;36703;48.154;17.126;2023-07-29T04:09:59;26.50;76.60
50738;DHT22;36703;48.154;17.126;2023-07-29T04:14:00;26.60;76.60
50738;DHT22;36703;48.154;17.126;2023-07-29T04:18:04;26.60;75.60
50738;DHT22;36703;48.154;17.126;2023-07-29T04:22:06;26.70;76.40
50738;DHT22;36703;48.154;17.126;2023-07-29T04:26:08;26.70;76.20
50738;DHT22;36703;48.154;17.126;2023-07-29T04:30:09;26.70;76.40
50738;DHT22;36703;48.154;17.126;2023-07-29T04:34:11;26.70;76.00
50738;DHT22;36703;48.154;17.126;2023-07-29T04:38:14;26.80;76.30
50738;DHT22;36703;48.154;17.126;2023-07-29T04:42:15;26.80;76.20
50738;DHT22;36703;48.154;17.126;2023-07-29T04:46:17;26.90;76.00
50738;DHT22;36703;48.154;17.126;2023-07-29T04:50:19;27.00;75.70
50738;DHT22;36703;48.154;17.126;2023-07-29T04:54:20;26.90;75.70
50738;DHT22;36703;48.154;17.126;2023-07-29T04:58:22;26.90;75.60
50738;DHT22;36703;48.154;17.126;2023-07-29T05:02:24;27.00;75.80
50738;DHT22;36703;48.154;17.126;2023-07-29T05:06:25;27.00;75.50
50738;DHT22;36703;48.154;17.126;2023-07-29T05:10:27;27.00;75.60
50738;DHT22;36703;48.154;17.126;2023-07-29T05:14:28;26.90;74.50
50738;DHT22;36703;48.154;17.126;2023-07-29T05:18:30;27.00;75.30
50738;DHT22;36703;48.154;17.126;2023-07-29T05:22:32;27.10;75.30
50738;DHT22;36703;48.154;17.126;2023-07-29T05:26:33;27.10;75.20
50738;DHT22;36703;48.154;17.126;2023-07-29T05:30:35;27.10;75.30
50738;DHT22;36703;48.154;17.126;2023-07-29T05:34:41;27.00;75.30
50738;DHT22;36703;48.154;17.126;2023-07-29T05:38:42;26.90;75.70
50738;DHT22;36703;48.154;17.126;2023-07-29T05:42:44;26.80;76.10
50738;DHT22;36703;48.154;17.126;2023-07-29T05:46:46;26.80;76.10
50738;DHT22;36703;48.154;17.126;2023-07-29T05:50:48;26.80;76.40
50738;DHT22;36703;48.154;17.126;2023-07-29T05:54:51;26.80;76.50
50738;DHT22;36703;48.154;17.126;2023-07-29T05:58:52;26.70;76.40
50738;DHT22;36703;48.154;17.126;2023-07-29T06:02:55;26.70;76.50
50738;DHT22;36703;48.154;17.126;2023-07-29T06:06:57;26.70;76.60
50738;DHT22;36703;48.154;17.126;2023-07-29T06:10:59;26.70;76.90
50738;DHT22;36703;48.154;17.126;2023-07-29T06:15:00;26.70;77.20
50738;DHT22;36703;48.154;17.126;2023-07-29T06:19:02;26.70;77.20
50738;DHT22;36703;48.154;17.126;2023-07-29T06:23:03;26.60;77.40
50738;DHT22;36703;48.154;17.126;2023-07-29T06:27:05;26.60;77.50
50738;DHT22;36703;48.154;17.126;2023-07-29T06:31:07;26.60;77.10
50738;DHT22;36703;48.154;17.126;2023-07-29T06:35:08;26.60;77.10
50738;DHT22;36703;48.154;17.126;2023-07-29T06:39:10;26.60;76.90
50738;DHT22;36703;48.154;17.126;2023-07-29T06:43:11;26.50;77.00
50738;DHT22;36703;48.154;17.126;2023-07-29T06:47:13;26.80;75.90
50738;DHT22;36703;48.154;17.126;2023-07-29T06:51:14;27.00;75.70
50738;DHT22;36703;48.154;17.126;2023-07-29T06:55:16;27.10;75.10
50738;DHT22;36703;48.154;17.126;2023-07-29T06:59:17;27.20;74.40
50738;DHT22;36703;48.154;17.126;2023-07-29T07:03:19;27.30;73.60
50738;DHT22;36703;48.154;17.126;2023-07-29T07:07:21;27.40;73.30
50738;DHT22;36703;48.154;17.126;2023-07-29T07:11:22;27.40;72.90
50738;DHT22;36703;48.154;17.126;2023-07-29T07:15:24;27.60;72.00
50738;DHT22;36703;48.154;17.126;2023-07-29T07:19:26;27.60;72.60
50738;DHT22;36703;48.154;17.126;2023-07-29T07:23:27;27.60;72.30
50738;DHT22;36703;48.154;17.126;2023-07-29T07:27:29;27.60;72.40
50738;DHT22;36703;48.154;17.126;2023-07-29T07:31:33;27.60;73.10
50738;DHT22;36703;48.154;17.126;2023-07-29T07:35:36;27.60;72.00
50738;DHT22;36703;48.154;17.126;2023-07-29T07:39:37;27.70;72.00
50738;DHT22;36703;48.154;17.126;2023-07-29T07:43:39;27.70;72.20
50738;DHT22;36703;48.154;17.126;2023-07-29T07:47:40;27.70;72.20
50738;DHT22;36703;48.154;17.126;2023-07-29T07:51:43;27.70;72.10
50738;DHT22;36703;48.154;17.126;2023-07-29T07:55:45;27.70;71.90
50738;DHT22;36703;48.154;17.126;2023-07-29T07:59:47;27.70;71.90
50738;DHT22;36703;48.154;17.126;2023-07-29T08:03:50;27.80;71.70
50738;DHT22;36703;48.154;17.126;2023-07-29T08:07:51;27.70;71.30
50738;DHT22;36703;48.154;17.126;2023-07-29T08:11:53;27.80;71.30
50738;DHT22;36703;48.154;17.126;2023-07-29T08:15:54;27.80;71.50
50738;DHT22;36703;48.154;17.126;2023-07-29T08:19:56;27.90;71.40
50738;DHT22;36703;48.154;17.126;2023-07-29T08:23:58;28.00;71.20
50738;DHT22;36703;48.154;17.126;2023-07-29T08:27:59;27.90;70.10
50738;DHT22;36703;48.154;17.126;2023-07-29T08:32:01;28.00;71.50
50738;DHT22;36703;48.154;17.126;2023-07-29T08:36:03;28.20;70.90
50738;DHT22;36703;48.154;17.126;2023-07-29T08:40:05;28.10;70.60
50738;DHT22;36703;48.154;17.126;2023-07-29T08:44:16;28.20;70.20
50738;DHT22;36703;48.154;17.126;2023-07-29T08:48:24;28.30;70.00
50738;DHT22;36703;48.154;17.126;2023-07-29T08:52:33;28.60;69.90
50738;DHT22;36703;48.154;17.126;2023-07-29T08:56:37;28.40;69.80
50738;DHT22;36703;48.154;17.126;2023-07-29T09:00:39;28.40;69.20
50738;DHT22;36703;48.154;17.126;2023-07-29T09:04:41;28.40;68.50
50738;DHT22;36703;48.154;17.126;2023-07-29T09:08:44;28.50;68.80
50738;DHT22;36703;48.154;17.126;2023-07-29T09:12:46;28.50;68.90
50738;DHT22;36703;48.154;17.126;2023-07-29T09:16:48;28.60;68.70
50738;DHT22;36703;48.154;17.126;2023-07-29T09:20:50;28.70;69.00
50738;DHT22;36703;48.154;17.126;2023-07-29T09:24:51;28.80;69.10
50738;DHT22;36703;48.154;17.126;2023-07-29T09:28:57;28.90;67.70
50738;DHT22;36703;48.154;17.126;2023-07-29T09:32:59;29.00;68.20
50738;DHT22;36703;48.154;17.126;2023-07-29T09:37:01;29.10;68.60
50738;DHT22;36703;48.154;17.126;2023-07-29T09:41:02;29.00;67.10
50738;DHT22;36703;48.154;17.126;2023-07-29T09:45:04;29.10;66.90
50738;DHT22;36703;48.154;17.126;2023-07-29T09:49:07;29.30;67.50
50738;DHT22;36703;48.154;17.126;2023-07-29T09:53:09;29.40;66.40
50738;DHT22;36703;48.154;17.126;2023-07-29T09:57:13;29.60;66.90
50738;DHT22;36703;48.154;17.126;2023-07-29T10:01:16;29.80;66.70
50738;DHT22;36703;48.154;17.126;2023-07-29T10:05:19;29.90;66.40
50738;DHT22;36703;48.154;17.126;2023-07-29T10:09:21;30.10;66.20
50738;DHT22;36703;48.154;17.126;2023-07-29T10:13:24;30.30;66.20
50738;DHT22;36703;48.154;17.126;2023-07-29T10:17:27;30.30;65.60
50738;DHT22;36703;48.154;17.126;2023-07-29T10:21:29;30.30;65.30
50738;DHT22;36703;48.154;17.126;2023-07-29T10:25:37;30.10;64.40
50738;DHT22;36703;48.154;17.126;2023-07-29T10:29:44;30.50;65.10
50738;DHT22;36703;48.154;17.126;2023-07-29T10:33:46;30.70;64.80
50738;DHT22;36703;48.154;17.126;2023-07-29T10:37:48;30.90;64.70
50738;DHT22;36703;48.154;17.126;2023-07-29T10:42:02;31.00;64.40
50738;DHT22;36703;48.154;17.126;2023-07-29T10:46:21;31.20;63.80
50738;DHT22;36703;48.154;17.126;2023-07-29T10:50:23;31.20;62.70
50738;DHT22;36703;48.154;17.126;2023-07-29T10:54:25;31.50;63.60
50738;DHT22;36703;48.154;17.126;2023-07-29T10:58:29;31.50;62.30
50738;DHT22;36703;48.154;17.126;2023-07-29T11:02:36;31.70;63.10
50738;DHT22;36703;48.154;17.126;2023-07-29T11:11:08;31.80;62.60
50738;DHT22;36703;48.154;17.126;2023-07-29T11:15:27;31.90;62.70
50738;DHT22;36703;48.154;17.126;2023-07-29T11:19:29;31.90;62.60
50738;DHT22;36703;48.154;17.126;2023-07-29T11:23:33;31.80;63.00
50738;DHT22;36703;48.154;17.126;2023-07-29T11:27:36;31.90;63.00
50738;DHT22;36703;48.154;17.126;2023-07-29T11:31:41;32.00;62.90
50738;DHT22;36703;48.154;17.126;2023-07-29T11:35:43;31.80;62.20
50738;DHT22;36703;48.154;17.126;2023-07-29T11:39:45;31.80;63.50
50738;DHT22;36703;48.154;17.126;2023-07-29T11:43:46;31.70;63.70
50738;DHT22;36703;48.154;17.126;2023-07-29T11:47:48;31.60;63.80
50738;DHT22;36703;48.154;17.126;2023-07-29T11:51:49;31.50;63.60
50738;DHT22;36703;48.154;17.126;2023-07-29T11:55:54;31.40;62.60
50738;DHT22;36703;48.154;17.126;2023-07-29T11:59:55;31.60;63.60
50738;DHT22;36703;48.154;17.126;2023-07-29T12:03:57;31.70;63.60
50738;DHT22;36703;48.154;17.126;2023-07-29T12:07:59;31.80;63.40
50738;DHT22;36703;48.154;17.126;2023-07-29T12:12:02;31.80;63.20
50738;DHT22;36703;48.154;17.126;2023-07-29T12:16:04;31.90;63.10
50738;DHT22;36703;48.154;17.126;2023-07-29T12:20:09;31.90;62.20
50738;DHT22;36703;48.154;17.126;2023-07-29T12:24:15;32.00;62.70
50738;DHT22;36703;48.154;17.126;2023-07-29T12:28:16;32.00;61.90
50738;DHT22;36703;48.154;17.126;2023-07-29T12:32:18;32.00;61.90
50738;DHT22;36703;48.154;17.126;2023-07-29T12:36:19;32.00;62.10
50738;DHT22;36703;48.154;17.126;2023-07-29T12:40:25;32.10;63.40
50738;DHT22;36703;48.154;17.126;2023-07-29T12:44:33;32.10;62.80
50738;DHT22;36703;48.154;17.126;2023-07-29T12:48:36;32.20;62.70
50738;DHT22;36703;48.154;17.126;2023-07-29T12:52:37;32.10;61.80
50738;DHT22;36703;48.154;17.126;2023-07-29T12:56:40;32.20;62.60
50738;DHT22;36703;48.154;17.126;2023-07-29T13:00:41;32.20;63.40
50738;DHT22;36703;48.154;17.126;2023-07-29T13:04:43;32.30;62.70
50738;DHT22;36703;48.154;17.126;2023-07-29T13:08:45;32.20;62.50
50738;DHT22;36703;48.154;17.126;2023-07-29T13:12:46;32.20;62.20
50738;DHT22;36703;48.154;17.126;2023-07-29T13:16:49;32.10;62.70
50738;DHT22;36703;48.154;17.126;2023-07-29T13:20:51;32.10;63.20
50738;DHT22;36703;48.154;17.126;2023-07-29T13:24:52;32.10;62.80
50738;DHT22;36703;48.154;17.126;2023-07-29T13:28:54;32.00;62.70
50738;DHT22;36703;48.154;17.126;2023-07-29T13:32:57;31.90;63.10
50738;DHT22;36703;48.154;17.126;2023-07-29T13:36:58;31.80;64.10
50738;DHT22;36703;48.154;17.126;2023-07-29T13:41:00;31.60;65.50
50738;DHT22;36703;48.154;17.126;2023-07-29T13:45:02;31.20;67.00
50738;DHT22;36703;48.154;17.126;2023-07-29T13:49:04;31.00;67.70
50738;DHT22;36703;48.154;17.126;2023-07-29T13:53:05;30.80;68.70
50738;DHT22;36703;48.154;17.126;2023-07-29T13:57:07;30.70;68.80
50738;DHT22;36703;48.154;17.126;2023-07-29T14:01:08;30.50;70.40
50738;DHT22;36703;48.154;17.126;2023-07-29T14:05:10;30.10;72.50
50738;DHT22;36703;48.154;17.126;2023-07-29T14:09:12;29.60;74.20
50738;DHT22;36703;48.154;17.126;2023-07-29T14:13:14;29.00;74.60
50738;DHT22;36703;48.154;17.126;2023-07-29T14:17:16;28.80;77.20
50738;DHT22;36703;48.154;17.126;2023-07-29T14:21:17;28.50;76.90
50738;DHT22;36703;48.154;17.126;2023-07-29T14:25:19;28.40;77.90
50738;DHT22;36703;48.154;17.126;2023-07-29T14:29:21;28.40;78.10
50738;DHT22;36703;48.154;17.126;2023-07-29T14:33:22;28.40;78.40
50738;DHT22;36703;48.154;17.126;2023-07-29T14:37:24;28.30;78.60
50738;DHT22;36703;48.154;17.126;2023-07-29T14:41:25;28.40;78.80
50738;DHT22;36703;48.154;17.126;2023-07-29T14:45:27;28.40;78.80
50738;DHT22;36703;48.154;17.126;2023-07-29T14:49:29;28.50;78.90
50738;DHT22;36703;48.154;17.126;2023-07-29T14:53:30;28.50;78.70
50738;DHT22;36703;48.154;17.126;2023-07-29T14:57:32;28.40;78.70
50738;DHT22;36703;48.154;17.126;2023-07-29T15:01:34;28.50;78.60
50738;DHT22;36703;48.154;17.126;2023-07-29T15:05:35;28.60;78.70
50738;DHT22;36703;48.154;17.126;2023-07-29T15:09:37;28.50;77.40
50738;DHT22;36703;48.154;17.126;2023-07-29T15:13:38;28.60;78.60
50738;DHT22;36703;48.154;17.126;2023-07-29T15:17:40;28.60;78.70
50738;DHT22;36703;48.154;17.126;2023-07-29T15:21:41;28.60;78.80
50738;DHT22;36703;48.154;17.126;2023-07-29T15:25:43;28.70;78.90
50738;DHT22;36703;48.154;17.126;2023-07-29T15:29:44;28.80;79.70
50738;DHT22;36703;48.154;17.126;2023-07-29T15:33:46;28.80;79.10
50738;DHT22;36703;48.154;17.126;2023-07-29T15:37:48;29.10;79.40
50738;DHT22;36703;48.154;17.126;2023-07-29T15:41:50;28.90;78.70
50738;DHT22;36703;48.154;17.126;2023-07-29T15:45:51;28.80;78.30
50738;DHT22;36703;48.154;17.126;2023-07-29T15:49:53;28.80;78.70
50738;DHT22;36703;48.154;17.126;2023-07-29T15:53:54;28.80;78.70
50738;DHT22;36703;48.154;17.126;2023-07-29T15:57:56;28.80;78.60
50738;DHT22;36703;48.154;17.126;2023-07-29T16:01:57;28.80;78.50
50738;DHT22;36703;48.154;17.126;2023-07-29T16:05:59;28.90;79.60
50738;DHT22;36703;48.154;17.126;2023-07-29T16:10:02;28.80;79.10
50738;DHT22;36703;48.154;17.126;2023-07-29T16:14:06;28.90;79.20
50738;DHT22;36703;48.154;17.126;2023-07-29T16:18:08;28.90;79.80
50738;DHT22;36703;48.154;17.126;2023-07-29T16:22:10;28.90;79.50
50738;DHT22;36703;48.154;17.126;2023-07-29T16:26:11;28.80;79.70
50738;DHT22;36703;48.154;17.126;2023-07-29T16:30:13;28.90;80.10
50738;DHT22;36703;48.154;17.126;2023-07-29T16:34:15;28.90;79.50
50738;DHT22;36703;48.154;17.126;2023-07-29T16:38:16;28.90;79.90
50738;DHT22;36703;48.154;17.126;2023-07-29T16:42:18;28.90;79.10
50738;DHT22;36703;48.154;17.126;2023-07-29T16:46:19;28.90;79.40
50738;DHT22;36703;48.154;17.126;2023-07-29T16:50:21;28.90;78.90
50738;DHT22;36703;48.154;17.126;2023-07-29T16:54:23;28.90;78.90
50738;DHT22;36703;48.154;17.126;2023-07-29T16:58:24;28.90;78.90
50738;DHT22;36703;48.154;17.126;2023-07-29T17:02:26;28.90;79.30
50738;DHT22;36703;48.154;17.126;2023-07-29T17:06:27;28.80;78.40
50738;DHT22;36703;48.154;17.126;2023-07-29T17:10:29;28.80;78.40
50738;DHT22;36703;48.154;17.126;2023-07-29T17:14:30;28.90;79.40
50738;DHT22;36703;48.154;17.126;2023-07-29T17:18:32;28.90;78.70
50738;DHT22;36703;48.154;17.126;2023-07-29T17:22:34;28.80;77.90
50738;DHT22;36703;48.154;17.126;2023-07-29T17:26:36;28.90;78.60
50738;DHT22;36703;48.154;17.126;2023-07-29T17:30:38;28.90;78.10
50738;DHT22;36703;48.154;17.126;2023-07-29T17:34:39;28.80;76.80
50738;DHT22;36703;48.154;17.126;2023-07-29T17:38:41;28.80;77.70
50738;DHT22;36703;48.154;17.126;2023-07-29T17:42:42;28.80;77.40
50738;DHT22;36703;48.154;17.126;2023-07-29T17:46:44;28.80;77.20
50738;DHT22;36703;48.154;17.126;2023-07-29T17:50:46;28.80;76.30
50738;DHT22;36703;48.154;17.126;2023-07-29T17:54:48;28.80;77.00
50738;DHT22;36703;48.154;17.126;2023-07-29T17:58:49;28.80;77.10
50738;DHT22;36703;48.154;17.126;2023-07-29T18:02:51;28.80;76.80
50738;DHT22;36703;48.154;17.126;2023-07-29T18:06:54;28.70;76.90
50738;DHT22;36703;48.154;17.126;2023-07-29T18:10:56;28.60;75.90
50738;DHT22;36703;48.154;17.126;2023-07-29T18:14:57;28.60;76.90
50738;DHT22;36703;48.154;17.126;2023-07-29T18:18:59;28.50;77.20
50738;DHT22;36703;48.154;17.126;2023-07-29T18:23:01;28.50;77.50
50738;DHT22;36703;48.154;17.126;2023-07-29T18:27:06;28.70;78.00
50738;DHT22;36703;48.154;17.126;2023-07-29T18:31:10;28.40;78.40
50738;DHT22;36703;48.154;17.126;2023-07-29T18:35:11;28.40;79.30
50738;DHT22;36703;48.154;17.126;2023-07-29T18:39:18;28.30;79.40
50738;DHT22;36703;48.154;17.126;2023-07-29T18:43:20;28.30;80.00
50738;DHT22;36703;48.154;17.126;2023-07-29T18:47:21;28.20;79.30
50738;DHT22;36703;48.154;17.126;2023-07-29T18:51:23;28.20;80.60
50738;DHT22;36703;48.154;17.126;2023-07-29T18:55:25;28.20;81.00
50738;DHT22;36703;48.154;17.126;2023-07-29T18:59:28;28.20;80.80
50738;DHT22;36703;48.154;17.126;2023-07-29T19:03:29;28.10;80.20
50738;DHT22;36703;48.154;17.126;2023-07-29T19:07:31;28.20;81.30
50738;DHT22;36703;48.154;17.126;2023-07-29T19:11:36;28.20;81.30
50738;DHT22;36703;48.154;17.126;2023-07-29T19:15:37;28.20;81.90
50738;DHT22;36703;48.154;17.126;2023-07-29T19:19:40;28.00;81.00
50738;DHT22;36703;48.154;17.126;2023-07-29T19:23:42;28.00;81.10
50738;DHT22;36703;48.154;17.126;2023-07-29T19:27:44;28.00;83.00
50738;DHT22;36703;48.154;17.126;2023-07-29T19:31:46;27.90;82.70
50738;DHT22;36703;48.154;17.126;2023-07-29T19:35:53;27.90;82.70
50738;DHT22;36703;48.154;17.126;2023-07-29T19:39:56;27.90;82.50
50738;DHT22;36703;48.154;17.126;2023-07-29T19:43:58;28.00;82.70
50738;DHT22;36703;48.154;17.126;2023-07-29T19:47:59;28.00;82.50
50738;DHT22;36703;48.154;17.126;2023-07-29T19:52:04;28.10;82.60
50738;DHT22;36703;48.154;17.126;2023-07-29T19:56:05;28.10;82.40
50738;DHT22;36703;48.154;17.126;2023-07-29T20:00:07;28.10;82.20
50738;DHT22;36703;48.154;17.126;2023-07-29T20:04:09;28.00;81.70
50738;DHT22;36703;48.154;17.126;2023-07-29T20:08:10;28.10;81.10
50738;DHT22;36703;48.154;17.126;2023-07-29T20:12:12;28.20;82.00
50738;DHT22;36703;48.154;17.126;2023-07-29T20:16:14;28.10;80.80
50738;DHT22;36703;48.154;17.126;2023-07-29T20:20:15;28.20;81.70
50738;DHT22;36703;48.154;17.126;2023-07-29T20:24:17;28.20;79.50
50738;DHT22;36703;48.154;17.126;2023-07-29T20:28:18;28.00;76.40
50738;DHT22;36703;48.154;17.126;2023-07-29T20:32:22;28.10;76.20
50738;DHT22;36703;48.154;17.126;2023-07-29T20:36:23;28.10;75.30
50738;DHT22;36703;48.154;17.126;2023-07-29T20:40:28;28.10;74.40
50738;DHT22;36703;48.154;17.126;2023-07-29T20:44:30;28.10;73.60
50738;DHT22;36703;48.154;17.126;2023-07-29T20:48:31;28.10;72.90
50738;DHT22;36703;48.154;17.126;2023-07-29T20:52:33;28.10;71.80
50738;DHT22;36703;48.154;17.126;2023-07-29T20:56:36;28.10;71.70
50738;DHT22;36703;48.154;17.126;2023-07-29T21:00:37;28.10;70.60
50738;DHT22;36703;48.154;17.126;2023-07-29T21:04:39;28.10;70.50
50738;DHT22;36703;48.154;17.126;2023-07-29T21:08:41;28.10;70.30
50738;DHT22;36703;48.154;17.126;2023-07-29T21:12:42;28.10;70.00
50738;DHT22;36703;48.154;17.126;2023-07-29T21:16:43;28.10;69.60
50738;DHT22;36703;48.154;17.126;2023-07-29T21:20:45;28.00;69.80
50738;DHT22;36703;48.154;17.126;2023-07-29T21:24:47;27.80;70.60
50738;DHT22;36703;48.154;17.126;2023-07-29T21:28:48;27.70;69.70
50738;DHT22;36703;48.154;17.126;2023-07-29T21:32:50;27.70;70.70
50738;DHT22;36703;48.154;17.126;2023-07-29T21:36:51;27.70;70.40
50738;DHT22;36703;48.154;17.126;2023-07-29T21:40:54;27.70;70.40
50738;DHT22;36703;48.154;17.126;2023-07-29T21:44:55;27.80;70.50
50738;DHT22;36703;48.154;17.126;2023-07-29T21:48:57;27.90;70.50
50738;DHT22;36703;48.154;17.126;2023-07-29T21:52:58;27.90;70.10
50738;DHT22;36703;48.154;17.126;2023-07-29T21:57:00;27.80;70.10
50738;DHT22;36703;48.154;17.126;2023-07-29T22:01:01;27.70;70.10
50738;DHT22;36703;48.154;17.126;2023-07-29T22:05:04;27.60;70.50
50738;DHT22;36703;48.154;17.126;2023-07-29T22:09:06;27.50;71.00
50738;DHT22;36703;48.154;17.126;2023-07-29T22:13:08;27.40;70.90
50738;DHT22;36703;48.154;17.126;2023-07-29T22:17:09;27.40;72.50
50738;DHT22;36703;48.154;17.126;2023-07-29T22:21:11;27.40;72.90
50738;DHT22;36703;48.154;17.126;2023-07-29T22:25:12;27.50;73.70
50738;DHT22;36703;48.154;17.126;2023-07-29T22:29:14;27.40;73.40
50738;DHT22;36703;48.154;17.126;2023-07-29T22:33:16;27.40;74.00
50738;DHT22;36703;48.154;17.126;2023-07-29T22:37:17;27.40;74.40
50738;DHT22;36703;48.154;17.126;2023-07-29T22:41:19;27.40;74.40
50738;DHT22;36703;48.154;17.126;2023-07-29T22:45:20;27.40;74.60
50738;DHT22;36703;48.154;17.126;2023-07-29T22:49:22;27.30;75.40
50738;DHT22;36703;48.154;17.126;2023-07-29T22:53:24;27.20;77.10
50738;DHT22;36703;48.154;17.126;2023-07-29T22:57:25;27.20;77.50
50738;DHT22;36703;48.154;17.126;2023-07-29T23:01:27;27.10;78.60
50738;DHT22;36703;48.154;17.126;2023-07-29T23:05:28;27.00;79.30
50738;DHT22;36703;48.154;17.126;2023-07-29T23:09:30;26.90;80.00
50738;DHT22;36703;48.154;17.126;2023-07-29T23:13:31;26.90;80.80
50738;DHT22;36703;48.154;17.126;2023-07-29T23:17:33;26.80;81.40
50738;DHT22;36703;48.154;17.126;2023-07-29T23:21:34;26.70;82.00
50738;DHT22;36703;48.154;17.126;2023-07-29T23:25:36;26.70;82.40
50738;DHT22;36703;48.154;17.126;2023-07-29T23:29:37;26.70;83.10
50738;DHT22;36703;48.154;17.126;2023-07-29T23:33:39;26.60;83.00
50738;DHT22;36703;48.154;17.126;2023-07-29T23:37:41;26.60;83.30
50738;DHT22;36703;48.154;17.126;2023-07-29T23:41:42;26.60;83.50
50738;DHT22;36703;48.154;17.126;2023-07-29T23:45:44;26.60;83.70
50738;DHT22;36703;48.154;17.126;2023-07-29T23:49:45;26.50;84.00
50738;DHT22;36703;48.154;17.126;2023-07-29T23:53:47;26.40;84.00
50738;DHT22;36703;48.154;17.126;2023-07-29T23:57:48;26.40;84.40
